sensor_id;sensor_type;location;lat;lon;timestamp;P1;durP1;ratioP1;P2;durP2;ratioP2
46643;SDS011;32371;51.032;5.816;2024-03-22T00:00:07;22.65;;;12.40;;
46643;SDS011;32371;51.032;5.816;2024-03-22T00:02:36;26.52;;;10.73;;
46643;SDS011;32371;51.032;5.816;2024-03-22T00:05:02;22.67;;;10.02;;
46643;SDS011;32371;51.032;5.816;2024-03-22T00:07:28;26.48;;;11.13;;
46643;SDS011;32371;51.032;5.816;2024-03-22T00:09:53;24.40;;;10.68;;
46643;SDS011;32371;51.032;5.816;2024-03-22T00:12:18;29.73;;;11.82;;
46643;SDS011;32371;51.032;5.816;2024-03-22T00:14:44;21.33;;;10.77;;
46643;SDS011;32371;51.032;5.816;2024-03-22T00:17:09;22.35;;;11.43;;
46643;SDS011;32371;51.032;5.816;2024-03-22T00:19:34;28.20;;;11.50;;
46643;SDS011;32371;51.032;5.816;2024-03-22T00:22:00;27.27;;;11.52;;
46643;SDS011;32371;51.032;5.816;2024-03-22T00:24:25;26.60;;;11.82;;
46643;SDS011;32371;51.032;5.816;2024-03-22T00:26:51;25.02;;;10.27;;
46643;SDS011;32371;51.032;5.816;2024-03-22T00:29:16;24.83;;;11.77;;
46643;SDS011;32371;51.032;5.816;2024-03-22T00:31:41;21.92;;;10.60;;
46643;SDS011;32371;51.032;5.816;2024-03-22T00:34:07;21.30;;;10.55;;
46643;SDS011;32371;51.032;5.816;2024-03-22T00:36:32;27.88;;;10.45;;
46643;SDS011;32371;51.032;5.816;2024-03-22T00:38:58;25.80;;;10.15;;
46643;SDS011;32371;51.032;5.816;2024-03-22T00:41:23;22.90;;;10.55;;
46643;SDS011;32371;51.032;5.816;2024-03-22T00:43:48;24.55;;;11.25;;
46643;SDS011;32371;51.032;5.816;2024-03-22T00:46:14;26.77;;;11.07;;
46643;SDS011;32371;51.032;5.816;2024-03-22T00:48:39;22.48;;;11.05;;
46643;SDS011;32371;51.032;5.816;2024-03-22T00:51:04;20.25;;;9.65;;
46643;SDS011;32371;51.032;5.816;2024-03-22T00:53:30;25.67;;;11.13;;
46643;SDS011;32371;51.032;5.816;2024-03-22T00:55:55;27.05;;;10.82;;
46643;SDS011;32371;51.032;5.816;2024-03-22T00:58:23;19.92;;;9.75;;
46643;SDS011;32371;51.032;5.816;2024-03-22T01:00:49;25.63;;;10.65;;
46643;SDS011;32371;51.032;5.816;2024-03-22T01:03:14;23.63;;;11.35;;
46643;SDS011;32371;51.032;5.816;2024-03-22T01:05:40;29.42;;;11.68;;
46643;SDS011;32371;51.032;5.816;2024-03-22T01:08:07;23.35;;;10.02;;
46643;SDS011;32371;51.032;5.816;2024-03-22T01:10:33;25.45;;;11.25;;
46643;SDS011;32371;51.032;5.816;2024-03-22T01:12:58;26.30;;;11.52;;
46643;SDS011;32371;51.032;5.816;2024-03-22T01:15:23;25.27;;;11.77;;
46643;SDS011;32371;51.032;5.816;2024-03-22T01:17:49;26.60;;;11.75;;
46643;SDS011;32371;51.032;5.816;2024-03-22T01:20:14;24.00;;;11.55;;
46643;SDS011;32371;51.032;5.816;2024-03-22T01:22:40;24.23;;;11.30;;
46643;SDS011;32371;51.032;5.816;2024-03-22T01:25:05;21.50;;;9.60;;
46643;SDS011;32371;51.032;5.816;2024-03-22T01:27:31;21.73;;;10.32;;
46643;SDS011;32371;51.032;5.816;2024-03-22T01:29:56;23.15;;;10.93;;
46643;SDS011;32371;51.032;5.816;2024-03-22T01:32:21;22.33;;;10.70;;
46643;SDS011;32371;51.032;5.816;2024-03-22T01:34:47;24.90;;;10.57;;
46643;SDS011;32371;51.032;5.816;2024-03-22T01:37:12;26.52;;;11.45;;
46643;SDS011;32371;51.032;5.816;2024-03-22T01:39:37;24.20;;;10.70;;
46643;SDS011;32371;51.032;5.816;2024-03-22T01:42:03;22.40;;;11.30;;
46643;SDS011;32371;51.032;5.816;2024-03-22T01:44:28;22.25;;;10.45;;
46643;SDS011;32371;51.032;5.816;2024-03-22T01:46:54;27.30;;;10.75;;
46643;SDS011;32371;51.032;5.816;2024-03-22T01:49:19;24.83;;;11.25;;
46643;SDS011;32371;51.032;5.816;2024-03-22T01:51:45;24.48;;;11.57;;
46643;SDS011;32371;51.032;5.816;2024-03-22T01:54:11;20.27;;;10.05;;
46643;SDS011;32371;51.032;5.816;2024-03-22T01:56:37;24.00;;;10.55;;
46643;SDS011;32371;51.032;5.816;2024-03-22T01:59:04;20.35;;;11.13;;
46643;SDS011;32371;51.032;5.816;2024-03-22T02:01:29;21.95;;;10.52;;
46643;SDS011;32371;51.032;5.816;2024-03-22T02:03:55;24.55;;;10.20;;
46643;SDS011;32371;51.032;5.816;2024-03-22T02:06:20;21.88;;;10.60;;
46643;SDS011;32371;51.032;5.816;2024-03-22T02:08:45;23.27;;;10.57;;
46643;SDS011;32371;51.032;5.816;2024-03-22T02:11:11;17.58;;;10.57;;
46643;SDS011;32371;51.032;5.816;2024-03-22T02:13:36;24.42;;;10.95;;
46643;SDS011;32371;51.032;5.816;2024-03-22T02:16:05;26.77;;;11.48;;
46643;SDS011;32371;51.032;5.816;2024-03-22T02:18:30;26.45;;;11.27;;
46643;SDS011;32371;51.032;5.816;2024-03-22T02:20:56;24.33;;;11.48;;
46643;SDS011;32371;51.032;5.816;2024-03-22T02:23:26;24.40;;;10.60;;
46643;SDS011;32371;51.032;5.816;2024-03-22T02:26:01;23.90;;;10.25;;
46643;SDS011;32371;51.032;5.816;2024-03-22T02:28:28;26.90;;;11.02;;
46643;SDS011;32371;51.032;5.816;2024-03-22T02:30:53;21.17;;;11.77;;
46643;SDS011;32371;51.032;5.816;2024-03-22T02:33:19;25.50;;;11.40;;
46643;SDS011;32371;51.032;5.816;2024-03-22T02:35:47;23.75;;;10.68;;
46643;SDS011;32371;51.032;5.816;2024-03-22T02:38:13;21.58;;;10.13;;
46643;SDS011;32371;51.032;5.816;2024-03-22T02:40:38;20.73;;;10.60;;
46643;SDS011;32371;51.032;5.816;2024-03-22T02:43:04;23.77;;;11.15;;
46643;SDS011;32371;51.032;5.816;2024-03-22T02:45:30;27.08;;;11.25;;
46643;SDS011;32371;51.032;5.816;2024-03-22T02:47:55;30.20;;;12.23;;
46643;SDS011;32371;51.032;5.816;2024-03-22T02:50:21;23.45;;;10.55;;
46643;SDS011;32371;51.032;5.816;2024-03-22T02:52:47;23.02;;;10.77;;
46643;SDS011;32371;51.032;5.816;2024-03-22T02:55:13;19.80;;;10.63;;
46643;SDS011;32371;51.032;5.816;2024-03-22T02:57:38;19.42;;;10.90;;
46643;SDS011;32371;51.032;5.816;2024-03-22T03:00:04;21.73;;;10.05;;
46643;SDS011;32371;51.032;5.816;2024-03-22T03:02:30;21.08;;;11.43;;
46643;SDS011;32371;51.032;5.816;2024-03-22T03:04:55;28.38;;;12.48;;
46643;SDS011;32371;51.032;5.816;2024-03-22T03:07:22;25.98;;;10.98;;
46643;SDS011;32371;51.032;5.816;2024-03-22T03:09:47;25.83;;;10.93;;
46643;SDS011;32371;51.032;5.816;2024-03-22T03:12:12;23.25;;;11.13;;
46643;SDS011;32371;51.032;5.816;2024-03-22T03:14:38;25.40;;;11.40;;
46643;SDS011;32371;51.032;5.816;2024-03-22T03:17:03;28.17;;;11.38;;
46643;SDS011;32371;51.032;5.816;2024-03-22T03:19:28;22.75;;;11.00;;
46643;SDS011;32371;51.032;5.816;2024-03-22T03:21:54;27.15;;;11.50;;
46643;SDS011;32371;51.032;5.816;2024-03-22T03:24:19;19.10;;;10.25;;
46643;SDS011;32371;51.032;5.816;2024-03-22T03:26:44;23.20;;;10.90;;
46643;SDS011;32371;51.032;5.816;2024-03-22T03:29:10;22.63;;;11.13;;
46643;SDS011;32371;51.032;5.816;2024-03-22T03:31:35;26.92;;;12.63;;
46643;SDS011;32371;51.032;5.816;2024-03-22T03:34:00;18.75;;;10.15;;
46643;SDS011;32371;51.032;5.816;2024-03-22T03:36:26;23.08;;;11.38;;
46643;SDS011;32371;51.032;5.816;2024-03-22T03:38:51;22.58;;;10.80;;
46643;SDS011;32371;51.032;5.816;2024-03-22T03:41:16;22.63;;;10.40;;
46643;SDS011;32371;51.032;5.816;2024-03-22T03:43:42;24.20;;;11.45;;
46643;SDS011;32371;51.032;5.816;2024-03-22T03:46:07;26.63;;;10.50;;
46643;SDS011;32371;51.032;5.816;2024-03-22T03:48:32;19.00;;;9.75;;
46643;SDS011;32371;51.032;5.816;2024-03-22T03:50:58;21.77;;;10.18;;
46643;SDS011;32371;51.032;5.816;2024-03-22T03:53:27;22.27;;;10.75;;
46643;SDS011;32371;51.032;5.816;2024-03-22T03:55:53;23.45;;;10.63;;
46643;SDS011;32371;51.032;5.816;2024-03-22T03:58:18;20.80;;;10.43;;
46643;SDS011;32371;51.032;5.816;2024-03-22T04:00:44;23.73;;;10.85;;
46643;SDS011;32371;51.032;5.816;2024-03-22T04:03:09;23.83;;;10.90;;
46643;SDS011;32371;51.032;5.816;2024-03-22T04:05:35;23.92;;;10.90;;
46643;SDS011;32371;51.032;5.816;2024-03-22T04:08:00;25.55;;;11.95;;
46643;SDS011;32371;51.032;5.816;2024-03-22T04:10:26;20.70;;;9.60;;
46643;SDS011;32371;51.032;5.816;2024-03-22T04:12:51;21.10;;;10.77;;
46643;SDS011;32371;51.032;5.816;2024-03-22T04:15:16;25.67;;;10.40;;
46643;SDS011;32371;51.032;5.816;2024-03-22T04:17:42;24.25;;;10.50;;
46643;SDS011;32371;51.032;5.816;2024-03-22T04:20:07;24.77;;;11.45;;
46643;SDS011;32371;51.032;5.816;2024-03-22T04:22:33;21.38;;;10.45;;
46643;SDS011;32371;51.032;5.816;2024-03-22T04:24:59;21.10;;;10.52;;
46643;SDS011;32371;51.032;5.816;2024-03-22T04:27:24;22.58;;;11.60;;
46643;SDS011;32371;51.032;5.816;2024-03-22T04:29:50;23.05;;;10.20;;
46643;SDS011;32371;51.032;5.816;2024-03-22T04:32:15;24.42;;;10.68;;
46643;SDS011;32371;51.032;5.816;2024-03-22T04:34:43;31.00;;;10.70;;
46643;SDS011;32371;51.032;5.816;2024-03-22T04:37:09;23.48;;;12.48;;
46643;SDS011;32371;51.032;5.816;2024-03-22T04:39:36;21.73;;;10.38;;
46643;SDS011;32371;51.032;5.816;2024-03-22T04:42:02;23.17;;;10.25;;
46643;SDS011;32371;51.032;5.816;2024-03-22T04:44:28;25.63;;;11.13;;
46643;SDS011;32371;51.032;5.816;2024-03-22T04:46:54;24.90;;;11.68;;
46643;SDS011;32371;51.032;5.816;2024-03-22T04:49:19;24.67;;;11.68;;
46643;SDS011;32371;51.032;5.816;2024-03-22T04:51:44;20.42;;;9.63;;
46643;SDS011;32371;51.032;5.816;2024-03-22T04:54:09;19.95;;;10.05;;
46643;SDS011;32371;51.032;5.816;2024-03-22T04:56:35;21.13;;;10.60;;
46643;SDS011;32371;51.032;5.816;2024-03-22T04:59:00;20.90;;;10.70;;
46643;SDS011;32371;51.032;5.816;2024-03-22T05:01:25;20.38;;;10.77;;
46643;SDS011;32371;51.032;5.816;2024-03-22T05:03:51;21.80;;;10.65;;
46643;SDS011;32371;51.032;5.816;2024-03-22T05:06:17;20.50;;;9.98;;
46643;SDS011;32371;51.032;5.816;2024-03-22T05:08:42;20.15;;;10.50;;
46643;SDS011;32371;51.032;5.816;2024-03-22T05:11:08;22.58;;;9.98;;
46643;SDS011;32371;51.032;5.816;2024-03-22T05:13:33;23.10;;;10.63;;
46643;SDS011;32371;51.032;5.816;2024-03-22T05:15:58;23.70;;;10.43;;
46643;SDS011;32371;51.032;5.816;2024-03-22T05:18:24;21.02;;;10.68;;
46643;SDS011;32371;51.032;5.816;2024-03-22T05:20:49;22.02;;;9.70;;
46643;SDS011;32371;51.032;5.816;2024-03-22T05:23:15;27.23;;;10.25;;
46643;SDS011;32371;51.032;5.816;2024-03-22T05:25:43;24.27;;;10.25;;
46643;SDS011;32371;51.032;5.816;2024-03-22T05:28:08;20.50;;;10.15;;
46643;SDS011;32371;51.032;5.816;2024-03-22T05:30:34;25.40;;;11.15;;
46643;SDS011;32371;51.032;5.816;2024-03-22T05:32:59;23.67;;;10.35;;
46643;SDS011;32371;51.032;5.816;2024-03-22T05:35:24;25.52;;;10.27;;
46643;SDS011;32371;51.032;5.816;2024-03-22T05:37:50;21.05;;;9.70;;
46643;SDS011;32371;51.032;5.816;2024-03-22T05:40:15;24.65;;;9.70;;
46643;SDS011;32371;51.032;5.816;2024-03-22T05:42:41;23.95;;;12.48;;
46643;SDS011;32371;51.032;5.816;2024-03-22T05:45:07;23.85;;;11.20;;
46643;SDS011;32371;51.032;5.816;2024-03-22T05:47:32;24.00;;;10.70;;
46643;SDS011;32371;51.032;5.816;2024-03-22T05:49:58;20.92;;;10.70;;
46643;SDS011;32371;51.032;5.816;2024-03-22T05:52:26;18.17;;;10.00;;
46643;SDS011;32371;51.032;5.816;2024-03-22T05:54:53;25.08;;;11.52;;
46643;SDS011;32371;51.032;5.816;2024-03-22T05:57:25;23.67;;;11.00;;
46643;SDS011;32371;51.032;5.816;2024-03-22T05:59:50;21.52;;;12.13;;
46643;SDS011;32371;51.032;5.816;2024-03-22T06:02:16;20.70;;;10.50;;
46643;SDS011;32371;51.032;5.816;2024-03-22T06:04:41;24.83;;;10.77;;
46643;SDS011;32371;51.032;5.816;2024-03-22T06:07:07;22.02;;;11.32;;
46643;SDS011;32371;51.032;5.816;2024-03-22T06:09:32;21.08;;;10.98;;
46643;SDS011;32371;51.032;5.816;2024-03-22T06:12:13;24.42;;;9.93;;
46643;SDS011;32371;51.032;5.816;2024-03-22T06:14:40;24.60;;;10.88;;
46643;SDS011;32371;51.032;5.816;2024-03-22T06:17:06;22.58;;;10.38;;
46643;SDS011;32371;51.032;5.816;2024-03-22T06:19:31;19.75;;;10.82;;
46643;SDS011;32371;51.032;5.816;2024-03-22T06:21:57;22.52;;;11.18;;
46643;SDS011;32371;51.032;5.816;2024-03-22T06:24:22;20.48;;;10.82;;
46643;SDS011;32371;51.032;5.816;2024-03-22T06:26:48;21.60;;;10.63;;
46643;SDS011;32371;51.032;5.816;2024-03-22T06:29:14;24.60;;;11.23;;
46643;SDS011;32371;51.032;5.816;2024-03-22T06:31:41;25.58;;;13.00;;
46643;SDS011;32371;51.032;5.816;2024-03-22T06:34:07;20.27;;;11.05;;
46643;SDS011;32371;51.032;5.816;2024-03-22T06:36:32;32.97;;;12.40;;
46643;SDS011;32371;51.032;5.816;2024-03-22T06:38:59;22.45;;;11.23;;
46643;SDS011;32371;51.032;5.816;2024-03-22T06:41:24;22.33;;;11.70;;
46643;SDS011;32371;51.032;5.816;2024-03-22T06:43:51;23.27;;;12.38;;
46643;SDS011;32371;51.032;5.816;2024-03-22T06:46:16;20.02;;;10.65;;
46643;SDS011;32371;51.032;5.816;2024-03-22T06:48:42;21.50;;;11.13;;
46643;SDS011;32371;51.032;5.816;2024-03-22T06:51:07;23.90;;;10.93;;
46643;SDS011;32371;51.032;5.816;2024-03-22T06:53:32;26.35;;;11.65;;
46643;SDS011;32371;51.032;5.816;2024-03-22T06:55:58;25.85;;;10.55;;
46643;SDS011;32371;51.032;5.816;2024-03-22T06:58:23;23.80;;;11.98;;
46643;SDS011;32371;51.032;5.816;2024-03-22T07:00:51;22.30;;;10.88;;
46643;SDS011;32371;51.032;5.816;2024-03-22T07:03:16;19.65;;;9.88;;
46643;SDS011;32371;51.032;5.816;2024-03-22T07:05:42;25.63;;;11.40;;
46643;SDS011;32371;51.032;5.816;2024-03-22T07:08:08;24.13;;;11.05;;
46643;SDS011;32371;51.032;5.816;2024-03-22T07:10:33;31.10;;;11.68;;
46643;SDS011;32371;51.032;5.816;2024-03-22T07:12:59;21.15;;;10.35;;
46643;SDS011;32371;51.032;5.816;2024-03-22T07:15:24;22.75;;;10.45;;
46643;SDS011;32371;51.032;5.816;2024-03-22T07:17:49;18.00;;;10.52;;
46643;SDS011;32371;51.032;5.816;2024-03-22T07:20:16;22.75;;;10.90;;
46643;SDS011;32371;51.032;5.816;2024-03-22T07:22:41;24.17;;;11.18;;
46643;SDS011;32371;51.032;5.816;2024-03-22T07:25:06;27.60;;;10.68;;
46643;SDS011;32371;51.032;5.816;2024-03-22T07:27:34;19.10;;;10.88;;
46643;SDS011;32371;51.032;5.816;2024-03-22T07:30:00;21.35;;;11.02;;
46643;SDS011;32371;51.032;5.816;2024-03-22T07:32:25;23.25;;;11.98;;
46643;SDS011;32371;51.032;5.816;2024-03-22T07:34:51;22.55;;;9.93;;
46643;SDS011;32371;51.032;5.816;2024-03-22T07:37:16;19.88;;;9.57;;
46643;SDS011;32371;51.032;5.816;2024-03-22T07:39:42;21.85;;;11.45;;
46643;SDS011;32371;51.032;5.816;2024-03-22T07:42:07;27.40;;;11.35;;
46643;SDS011;32371;51.032;5.816;2024-03-22T07:44:32;23.30;;;11.52;;
46643;SDS011;32371;51.032;5.816;2024-03-22T07:46:58;22.70;;;10.18;;
46643;SDS011;32371;51.032;5.816;2024-03-22T07:49:23;25.23;;;10.40;;
46643;SDS011;32371;51.032;5.816;2024-03-22T07:51:48;26.08;;;10.95;;
46643;SDS011;32371;51.032;5.816;2024-03-22T07:54:14;26.73;;;11.02;;
46643;SDS011;32371;51.032;5.816;2024-03-22T07:56:39;20.77;;;10.15;;
46643;SDS011;32371;51.032;5.816;2024-03-22T07:59:04;18.75;;;9.82;;
46643;SDS011;32371;51.032;5.816;2024-03-22T08:01:30;19.48;;;9.80;;
46643;SDS011;32371;51.032;5.816;2024-03-22T08:03:56;20.55;;;10.43;;
46643;SDS011;32371;51.032;5.816;2024-03-22T08:06:21;21.42;;;10.40;;
46643;SDS011;32371;51.032;5.816;2024-03-22T08:08:46;20.00;;;10.55;;
46643;SDS011;32371;51.032;5.816;2024-03-22T08:11:12;22.63;;;11.07;;
46643;SDS011;32371;51.032;5.816;2024-03-22T08:13:37;19.90;;;10.35;;
46643;SDS011;32371;51.032;5.816;2024-03-22T08:16:03;17.75;;;10.20;;
46643;SDS011;32371;51.032;5.816;2024-03-22T08:18:29;17.88;;;9.65;;
46643;SDS011;32371;51.032;5.816;2024-03-22T08:20:54;21.30;;;9.85;;
46643;SDS011;32371;51.032;5.816;2024-03-22T08:23:20;19.92;;;8.95;;
46643;SDS011;32371;51.032;5.816;2024-03-22T08:25:47;15.27;;;8.45;;
46643;SDS011;32371;51.032;5.816;2024-03-22T08:28:13;16.15;;;9.50;;
46643;SDS011;32371;51.032;5.816;2024-03-22T08:30:39;15.02;;;8.50;;
46643;SDS011;32371;51.032;5.816;2024-03-22T08:33:04;18.40;;;8.38;;
46643;SDS011;32371;51.032;5.816;2024-03-22T08:35:30;15.43;;;7.68;;
46643;SDS011;32371;51.032;5.816;2024-03-22T08:37:55;17.30;;;8.05;;
46643;SDS011;32371;51.032;5.816;2024-03-22T08:40:21;16.27;;;7.07;;
46643;SDS011;32371;51.032;5.816;2024-03-22T08:42:46;16.10;;;7.90;;
46643;SDS011;32371;51.032;5.816;2024-03-22T08:45:12;16.77;;;8.05;;
46643;SDS011;32371;51.032;5.816;2024-03-22T08:47:37;15.05;;;8.30;;
46643;SDS011;32371;51.032;5.816;2024-03-22T08:50:03;14.43;;;7.68;;
46643;SDS011;32371;51.032;5.816;2024-03-22T08:52:28;14.43;;;8.23;;
46643;SDS011;32371;51.032;5.816;2024-03-22T08:54:56;13.35;;;7.80;;
46643;SDS011;32371;51.032;5.816;2024-03-22T08:57:21;15.60;;;7.88;;
46643;SDS011;32371;51.032;5.816;2024-03-22T08:59:47;14.27;;;6.88;;
46643;SDS011;32371;51.032;5.816;2024-03-22T09:02:12;14.40;;;7.97;;
46643;SDS011;32371;51.032;5.816;2024-03-22T09:04:38;17.45;;;7.82;;
46643;SDS011;32371;51.032;5.816;2024-03-22T09:07:03;14.57;;;7.82;;
46643;SDS011;32371;51.032;5.816;2024-03-22T09:09:29;14.25;;;6.97;;
46643;SDS011;32371;51.032;5.816;2024-03-22T09:11:54;13.82;;;8.07;;
46643;SDS011;32371;51.032;5.816;2024-03-22T09:14:19;17.40;;;7.50;;
46643;SDS011;32371;51.032;5.816;2024-03-22T09:16:45;16.27;;;7.10;;
46643;SDS011;32371;51.032;5.816;2024-03-22T09:19:10;19.05;;;7.93;;
46643;SDS011;32371;51.032;5.816;2024-03-22T09:21:36;15.85;;;7.38;;
46643;SDS011;32371;51.032;5.816;2024-03-22T09:24:01;19.08;;;8.00;;
46643;SDS011;32371;51.032;5.816;2024-03-22T09:26:28;17.08;;;8.18;;
46643;SDS011;32371;51.032;5.816;2024-03-22T09:28:53;16.13;;;7.30;;
46643;SDS011;32371;51.032;5.816;2024-03-22T09:31:19;14.13;;;7.97;;
46643;SDS011;32371;51.032;5.816;2024-03-22T09:33:44;16.70;;;8.48;;
46643;SDS011;32371;51.032;5.816;2024-03-22T09:36:10;12.30;;;7.13;;
46643;SDS011;32371;51.032;5.816;2024-03-22T09:38:35;22.38;;;7.57;;
46643;SDS011;32371;51.032;5.816;2024-03-22T09:41:01;13.90;;;7.00;;
46643;SDS011;32371;51.032;5.816;2024-03-22T09:43:27;16.27;;;8.50;;
46643;SDS011;32371;51.032;5.816;2024-03-22T09:45:52;18.10;;;7.13;;
46643;SDS011;32371;51.032;5.816;2024-03-22T09:48:19;12.77;;;6.65;;
46643;SDS011;32371;51.032;5.816;2024-03-22T09:50:48;13.60;;;7.00;;
46643;SDS011;32371;51.032;5.816;2024-03-22T09:53:20;16.85;;;8.02;;
46643;SDS011;32371;51.032;5.816;2024-03-22T09:55:49;14.23;;;6.90;;
46643;SDS011;32371;51.032;5.816;2024-03-22T09:58:16;14.13;;;7.32;;
46643;SDS011;32371;51.032;5.816;2024-03-22T10:00:42;12.05;;;6.43;;
46643;SDS011;32371;51.032;5.816;2024-03-22T10:03:08;12.18;;;6.15;;
46643;SDS011;32371;51.032;5.816;2024-03-22T10:05:35;10.63;;;5.93;;
46643;SDS011;32371;51.032;5.816;2024-03-22T10:08:00;11.50;;;5.95;;
46643;SDS011;32371;51.032;5.816;2024-03-22T10:10:26;10.40;;;5.65;;
46643;SDS011;32371;51.032;5.816;2024-03-22T10:12:52;11.65;;;6.40;;
46643;SDS011;32371;51.032;5.816;2024-03-22T10:15:18;12.70;;;6.28;;
46643;SDS011;32371;51.032;5.816;2024-03-22T10:17:43;10.35;;;6.25;;
46643;SDS011;32371;51.032;5.816;2024-03-22T10:20:12;10.90;;;6.85;;
46643;SDS011;32371;51.032;5.816;2024-03-22T10:22:57;15.30;;;7.20;;
46643;SDS011;32371;51.032;5.816;2024-03-22T10:25:24;12.90;;;7.20;;
46643;SDS011;32371;51.032;5.816;2024-03-22T10:27:50;14.65;;;6.45;;
46643;SDS011;32371;51.032;5.816;2024-03-22T10:30:16;16.30;;;6.50;;
46643;SDS011;32371;51.032;5.816;2024-03-22T10:32:42;11.60;;;6.07;;
46643;SDS011;32371;51.032;5.816;2024-03-22T10:35:11;12.43;;;6.18;;
46643;SDS011;32371;51.032;5.816;2024-03-22T10:37:36;11.98;;;6.25;;
46643;SDS011;32371;51.032;5.816;2024-03-22T10:40:02;13.75;;;7.47;;
46643;SDS011;32371;51.032;5.816;2024-03-22T10:42:38;11.85;;;6.18;;
46643;SDS011;32371;51.032;5.816;2024-03-22T10:45:05;11.18;;;5.43;;
46643;SDS011;32371;51.032;5.816;2024-03-22T10:47:32;11.57;;;6.43;;
46643;SDS011;32371;51.032;5.816;2024-03-22T10:50:06;9.50;;;6.25;;
46643;SDS011;32371;51.032;5.816;2024-03-22T10:52:38;8.52;;;5.45;;
46643;SDS011;32371;51.032;5.816;2024-03-22T10:55:13;10.30;;;5.97;;
46643;SDS011;32371;51.032;5.816;2024-03-22T10:57:44;12.32;;;6.35;;
46643;SDS011;32371;51.032;5.816;2024-03-22T11:00:09;12.13;;;7.30;;
46643;SDS011;32371;51.032;5.816;2024-03-22T11:02:36;8.63;;;5.55;;
46643;SDS011;32371;51.032;5.816;2024-03-22T11:05:02;10.90;;;6.97;;
46643;SDS011;32371;51.032;5.816;2024-03-22T11:07:32;8.65;;;4.97;;
46643;SDS011;32371;51.032;5.816;2024-03-22T11:09:57;7.85;;;5.43;;
46643;SDS011;32371;51.032;5.816;2024-03-22T11:12:26;9.25;;;4.97;;
46643;SDS011;32371;51.032;5.816;2024-03-22T11:14:53;10.05;;;5.72;;
46643;SDS011;32371;51.032;5.816;2024-03-22T11:17:19;7.95;;;4.72;;
46643;SDS011;32371;51.032;5.816;2024-03-22T11:19:44;6.20;;;4.18;;
46643;SDS011;32371;51.032;5.816;2024-03-22T11:22:09;10.38;;;4.53;;
46643;SDS011;32371;51.032;5.816;2024-03-22T11:24:37;8.27;;;5.20;;
46643;SDS011;32371;51.032;5.816;2024-03-22T11:27:02;8.60;;;4.68;;
46643;SDS011;32371;51.032;5.816;2024-03-22T11:29:28;9.23;;;4.80;;
46643;SDS011;32371;51.032;5.816;2024-03-22T11:31:53;9.88;;;5.45;;
46643;SDS011;32371;51.032;5.816;2024-03-22T11:34:19;9.63;;;6.25;;
46643;SDS011;32371;51.032;5.816;2024-03-22T11:36:44;8.18;;;4.53;;
46643;SDS011;32371;51.032;5.816;2024-03-22T11:39:10;8.38;;;4.25;;
46643;SDS011;32371;51.032;5.816;2024-03-22T11:41:35;9.35;;;4.97;;
46643;SDS011;32371;51.032;5.816;2024-03-22T11:44:00;9.07;;;5.50;;
46643;SDS011;32371;51.032;5.816;2024-03-22T11:46:26;9.60;;;5.00;;
46643;SDS011;32371;51.032;5.816;2024-03-22T11:48:53;9.60;;;5.43;;
46643;SDS011;32371;51.032;5.816;2024-03-22T11:51:18;10.85;;;5.25;;
46643;SDS011;32371;51.032;5.816;2024-03-22T11:53:50;8.70;;;4.82;;
46643;SDS011;32371;51.032;5.816;2024-03-22T11:56:20;10.50;;;5.28;;
46643;SDS011;32371;51.032;5.816;2024-03-22T11:58:46;12.10;;;5.30;;
46643;SDS011;32371;51.032;5.816;2024-03-22T12:01:13;9.95;;;5.55;;
46643;SDS011;32371;51.032;5.816;2024-03-22T12:03:39;11.18;;;5.13;;
46643;SDS011;32371;51.032;5.816;2024-03-22T12:06:05;10.70;;;5.78;;
46643;SDS011;32371;51.032;5.816;2024-03-22T12:08:31;7.35;;;4.90;;
46643;SDS011;32371;51.032;5.816;2024-03-22T12:10:56;10.02;;;4.75;;
46643;SDS011;32371;51.032;5.816;2024-03-22T12:13:21;10.07;;;4.68;;
46643;SDS011;32371;51.032;5.816;2024-03-22T12:15:47;8.52;;;5.03;;
46643;SDS011;32371;51.032;5.816;2024-03-22T12:18:12;11.50;;;4.80;;
46643;SDS011;32371;51.032;5.816;2024-03-22T12:20:37;9.80;;;5.00;;
46643;SDS011;32371;51.032;5.816;2024-03-22T12:23:03;7.57;;;5.05;;
46643;SDS011;32371;51.032;5.816;2024-03-22T12:25:28;7.88;;;4.93;;
46643;SDS011;32371;51.032;5.816;2024-03-22T12:27:54;10.88;;;4.88;;
46643;SDS011;32371;51.032;5.816;2024-03-22T12:30:19;11.63;;;4.90;;
46643;SDS011;32371;51.032;5.816;2024-03-22T12:32:44;13.63;;;5.28;;
46643;SDS011;32371;51.032;5.816;2024-03-22T12:35:10;8.82;;;4.60;;
46643;SDS011;32371;51.032;5.816;2024-03-22T12:37:35;10.10;;;5.57;;
46643;SDS011;32371;51.032;5.816;2024-03-22T12:40:01;9.73;;;4.97;;
46643;SDS011;32371;51.032;5.816;2024-03-22T12:42:27;9.55;;;4.97;;
46643;SDS011;32371;51.032;5.816;2024-03-22T12:44:53;11.25;;;4.90;;
46643;SDS011;32371;51.032;5.816;2024-03-22T12:47:18;9.80;;;4.60;;
46643;SDS011;32371;51.032;5.816;2024-03-22T12:49:44;9.00;;;5.00;;
46643;SDS011;32371;51.032;5.816;2024-03-22T12:52:09;10.98;;;5.15;;
46643;SDS011;32371;51.032;5.816;2024-03-22T12:54:35;10.77;;;5.43;;
46643;SDS011;32371;51.032;5.816;2024-03-22T12:57:00;9.23;;;5.57;;
46643;SDS011;32371;51.032;5.816;2024-03-22T12:59:26;10.68;;;6.13;;
46643;SDS011;32371;51.032;5.816;2024-03-22T13:01:51;11.77;;;5.82;;
46643;SDS011;32371;51.032;5.816;2024-03-22T13:04:18;9.38;;;5.38;;
46643;SDS011;32371;51.032;5.816;2024-03-22T13:06:43;10.48;;;5.53;;
46643;SDS011;32371;51.032;5.816;2024-03-22T13:09:09;9.40;;;5.25;;
46643;SDS011;32371;51.032;5.816;2024-03-22T13:11:34;11.45;;;5.68;;
46643;SDS011;32371;51.032;5.816;2024-03-22T13:14:00;12.68;;;5.50;;
46643;SDS011;32371;51.032;5.816;2024-03-22T13:16:26;10.38;;;5.78;;
46643;SDS011;32371;51.032;5.816;2024-03-22T13:18:51;8.07;;;5.05;;
46643;SDS011;32371;51.032;5.816;2024-03-22T13:21:17;13.35;;;6.05;;
46643;SDS011;32371;51.032;5.816;2024-03-22T13:23:42;9.40;;;5.40;;
46643;SDS011;32371;51.032;5.816;2024-03-22T13:26:07;12.85;;;6.50;;
46643;SDS011;32371;51.032;5.816;2024-03-22T13:28:33;11.38;;;5.95;;
46643;SDS011;32371;51.032;5.816;2024-03-22T13:31:04;7.25;;;4.90;;
46643;SDS011;32371;51.032;5.816;2024-03-22T13:33:33;11.73;;;5.93;;
46643;SDS011;32371;51.032;5.816;2024-03-22T13:35:59;9.38;;;5.80;;
46643;SDS011;32371;51.032;5.816;2024-03-22T13:38:25;12.73;;;5.82;;
46643;SDS011;32371;51.032;5.816;2024-03-22T13:40:54;11.85;;;5.82;;
46643;SDS011;32371;51.032;5.816;2024-03-22T13:43:20;13.52;;;6.40;;
46643;SDS011;32371;51.032;5.816;2024-03-22T13:45:46;11.70;;;6.20;;
46643;SDS011;32371;51.032;5.816;2024-03-22T13:48:15;11.20;;;5.63;;
46643;SDS011;32371;51.032;5.816;2024-03-22T13:50:40;10.30;;;5.43;;
46643;SDS011;32371;51.032;5.816;2024-03-22T13:53:06;12.20;;;6.25;;
46643;SDS011;32371;51.032;5.816;2024-03-22T13:55:32;12.02;;;6.32;;
46643;SDS011;32371;51.032;5.816;2024-03-22T13:57:57;13.82;;;7.05;;
46643;SDS011;32371;51.032;5.816;2024-03-22T14:00:23;11.25;;;6.68;;
46643;SDS011;32371;51.032;5.816;2024-03-22T14:02:50;11.77;;;5.97;;
46643;SDS011;32371;51.032;5.816;2024-03-22T14:05:18;16.90;;;5.95;;
46643;SDS011;32371;51.032;5.816;2024-03-22T14:07:43;12.75;;;5.50;;
46643;SDS011;32371;51.032;5.816;2024-03-22T14:10:09;12.93;;;5.70;;
46643;SDS011;32371;51.032;5.816;2024-03-22T14:12:40;15.37;;;6.03;;
46643;SDS011;32371;51.032;5.816;2024-03-22T14:15:06;13.60;;;6.72;;
46643;SDS011;32371;51.032;5.816;2024-03-22T14:17:32;14.75;;;7.72;;
46643;SDS011;32371;51.032;5.816;2024-03-22T14:19:58;13.30;;;6.85;;